sensor_id;sensor_type;location;lat;lon;timestamp;temperature;humidity
32698;DHT22;19087;51.062;3.754;2024-02-21T00:01:37;11.30;99.90
32698;DHT22;19087;51.062;3.754;2024-02-21T00:04:03;11.20;99.90
32698;DHT22;19087;51.062;3.754;2024-02-21T00:06:29;11.10;99.90
32698;DHT22;19087;51.062;3.754;2024-02-21T00:09:00;11.00;99.90
32698;DHT22;19087;51.062;3.754;2024-02-21T00:11:28;11.00;99.90
32698;DHT22;19087;51.062;3.754;2024-02-21T00:13:53;11.00;99.90
32698;DHT22;19087;51.062;3.754;2024-02-21T00:16:20;10.90;99.90
32698;DHT22;19087;51.062;3.754;2024-02-21T00:18:49;10.90;99.90
32698;DHT22;19087;51.062;3.754;2024-02-21T00:21:21;10.80;99.90
32698;DHT22;19087;51.062;3.754;2024-02-21T00:23:48;10.90;99.90
32698;DHT22;19087;51.062;3.754;2024-02-21T00:26:19;11.00;99.90
32698;DHT22;19087;51.062;3.754;2024-02-21T00:28:51;10.80;99.90
32698;DHT22;19087;51.062;3.754;2024-02-21T00:31:17;10.60;99.90
32698;DHT22;19087;51.062;3.754;2024-02-21T00:33:45;10.40;99.90
32698;DHT22;19087;51.062;3.754;2024-02-21T00:36:10;10.20;99.90
32698;DHT22;19087;51.062;3.754;2024-02-21T00:38:37;10.30;99.90
32698;DHT22;19087;51.062;3.754;2024-02-21T00:41:03;10.30;99.90
32698;DHT22;19087;51.062;3.754;2024-02-21T00:43:29;10.20;99.90
32698;DHT22;19087;51.062;3.754;2024-02-21T00:45:55;10.30;99.90
32698;DHT22;19087;51.062;3.754;2024-02-21T00:48:21;10.20;99.90
32698;DHT22;19087;51.062;3.754;2024-02-21T00:50:47;10.20;99.90
32698;DHT22;19087;51.062;3.754;2024-02-21T00:53:13;10.10;99.90
32698;DHT22;19087;51.062;3.754;2024-02-21T00:55:39;10.00;99.90
32698;DHT22;19087;51.062;3.754;2024-02-21T00:58:05;10.00;99.90
32698;DHT22;19087;51.062;3.754;2024-02-21T01:00:31;9.90;99.90
32698;DHT22;19087;51.062;3.754;2024-02-21T01:02:57;9.90;99.90
32698;DHT22;19087;51.062;3.754;2024-02-21T01:05:23;9.90;99.90
32698;DHT22;19087;51.062;3.754;2024-02-21T01:07:48;9.90;99.90
32698;DHT22;19087;51.062;3.754;2024-02-21T01:10:14;9.90;99.90
32698;DHT22;19087;51.062;3.754;2024-02-21T01:12:40;9.90;99.90
32698;DHT22;19087;51.062;3.754;2024-02-21T01:15:07;9.90;99.90
32698;DHT22;19087;51.062;3.754;2024-02-21T01:17:32;9.90;99.90
32698;DHT22;19087;51.062;3.754;2024-02-21T01:19:58;10.00;99.90
32698;DHT22;19087;51.062;3.754;2024-02-21T01:22:24;10.00;99.90
32698;DHT22;19087;51.062;3.754;2024-02-21T01:24:50;9.90;99.90
32698;DHT22;19087;51.062;3.754;2024-02-21T01:27:15;9.90;99.90
32698;DHT22;19087;51.062;3.754;2024-02-21T01:29:42;10.00;99.90
32698;DHT22;19087;51.062;3.754;2024-02-21T01:32:07;10.00;99.90
32698;DHT22;19087;51.062;3.754;2024-02-21T01:34:33;10.00;99.90
32698;DHT22;19087;51.062;3.754;2024-02-21T01:36:59;9.90;99.90
32698;DHT22;19087;51.062;3.754;2024-02-21T01:39:25;9.90;99.90
32698;DHT22;19087;51.062;3.754;2024-02-21T01:41:50;9.80;99.90
32698;DHT22;19087;51.062;3.754;2024-02-21T01:44:19;9.80;99.90
32698;DHT22;19087;51.062;3.754;2024-02-21T01:46:45;9.80;99.90
32698;DHT22;19087;51.062;3.754;2024-02-21T01:49:10;9.70;99.90
32698;DHT22;19087;51.062;3.754;2024-02-21T01:51:37;9.80;99.90
32698;DHT22;19087;51.062;3.754;2024-02-21T01:54:02;9.70;99.90
32698;DHT22;19087;51.062;3.754;2024-02-21T01:56:29;9.80;99.90
32698;DHT22;19087;51.062;3.754;2024-02-21T01:58:56;9.70;99.90
32698;DHT22;19087;51.062;3.754;2024-02-21T02:01:22;9.80;99.90
32698;DHT22;19087;51.062;3.754;2024-02-21T02:03:48;9.80;99.90
32698;DHT22;19087;51.062;3.754;2024-02-21T02:06:14;9.90;99.90
32698;DHT22;19087;51.062;3.754;2024-02-21T02:08:40;10.00;99.90
32698;DHT22;19087;51.062;3.754;2024-02-21T02:11:07;9.90;99.90
32698;DHT22;19087;51.062;3.754;2024-02-21T02:13:33;10.00;99.90
32698;DHT22;19087;51.062;3.754;2024-02-21T02:15:59;10.00;99.90
32698;DHT22;19087;51.062;3.754;2024-02-21T02:18:25;9.90;99.90
32698;DHT22;19087;51.062;3.754;2024-02-21T02:20:54;9.80;99.90
32698;DHT22;19087;51.062;3.754;2024-02-21T02:23:26;9.90;99.90
32698;DHT22;19087;51.062;3.754;2024-02-21T02:26:05;9.90;99.90
32698;DHT22;19087;51.062;3.754;2024-02-21T02:28:34;10.00;99.90
32698;DHT22;19087;51.062;3.754;2024-02-21T02:31:01;9.80;99.90
32698;DHT22;19087;51.062;3.754;2024-02-21T02:33:28;10.00;99.90
32698;DHT22;19087;51.062;3.754;2024-02-21T02:35:53;9.90;99.90
32698;DHT22;19087;51.062;3.754;2024-02-21T02:38:19;9.80;99.90
32698;DHT22;19087;51.062;3.754;2024-02-21T02:40:45;9.80;99.90
32698;DHT22;19087;51.062;3.754;2024-02-21T02:43:11;9.70;99.90
32698;DHT22;19087;51.062;3.754;2024-02-21T02:45:36;9.60;99.90
32698;DHT22;19087;51.062;3.754;2024-02-21T02:48:03;9.70;99.90
32698;DHT22;19087;51.062;3.754;2024-02-21T02:50:29;9.60;99.90
32698;DHT22;19087;51.062;3.754;2024-02-21T02:52:55;9.70;99.90
32698;DHT22;19087;51.062;3.754;2024-02-21T02:55:21;9.70;99.90
32698;DHT22;19087;51.062;3.754;2024-02-21T02:57:47;9.80;99.90
32698;DHT22;19087;51.062;3.754;2024-02-21T03:00:14;9.70;99.90
32698;DHT22;19087;51.062;3.754;2024-02-21T03:02:42;9.60;99.90
32698;DHT22;19087;51.062;3.754;2024-02-21T03:05:16;9.40;99.90
32698;DHT22;19087;51.062;3.754;2024-02-21T03:07:43;9.40;99.90
32698;DHT22;19087;51.062;3.754;2024-02-21T03:10:10;9.40;99.90
32698;DHT22;19087;51.062;3.754;2024-02-21T03:12:37;9.50;99.90
32698;DHT22;19087;51.062;3.754;2024-02-21T03:15:04;9.50;99.90
32698;DHT22;19087;51.062;3.754;2024-02-21T03:17:32;9.50;99.90
32698;DHT22;19087;51.062;3.754;2024-02-21T03:19:59;9.50;99.90
32698;DHT22;19087;51.062;3.754;2024-02-21T03:22:26;9.50;99.90
32698;DHT22;19087;51.062;3.754;2024-02-21T03:24:53;9.60;99.90
32698;DHT22;19087;51.062;3.754;2024-02-21T03:27:19;9.50;99.90
32698;DHT22;19087;51.062;3.754;2024-02-21T03:29:45;9.70;99.90
32698;DHT22;19087;51.062;3.754;2024-02-21T03:32:11;9.70;99.90
32698;DHT22;19087;51.062;3.754;2024-02-21T03:34:40;9.70;99.90
32698;DHT22;19087;51.062;3.754;2024-02-21T03:37:06;9.60;99.90
32698;DHT22;19087;51.062;3.754;2024-02-21T03:39:38;9.60;99.90
32698;DHT22;19087;51.062;3.754;2024-02-21T03:42:05;9.50;99.90
32698;DHT22;19087;51.062;3.754;2024-02-21T03:44:37;9.60;99.90
32698;DHT22;19087;51.062;3.754;2024-02-21T03:47:02;9.60;99.90
32698;DHT22;19087;51.062;3.754;2024-02-21T03:49:34;9.60;99.90
32698;DHT22;19087;51.062;3.754;2024-02-21T03:52:00;9.70;99.90
32698;DHT22;19087;51.062;3.754;2024-02-21T03:54:25;9.70;99.90
32698;DHT22;19087;51.062;3.754;2024-02-21T03:56:59;9.60;99.90
32698;DHT22;19087;51.062;3.754;2024-02-21T03:59:25;9.70;99.90
32698;DHT22;19087;51.062;3.754;2024-02-21T04:01:55;9.80;99.90
32698;DHT22;19087;51.062;3.754;2024-02-21T04:04:25;10.00;99.90
32698;DHT22;19087;51.062;3.754;2024-02-21T04:06:54;10.10;99.90
32698;DHT22;19087;51.062;3.754;2024-02-21T04:09:21;10.00;99.90
32698;DHT22;19087;51.062;3.754;2024-02-21T04:11:48;9.90;99.90
32698;DHT22;19087;51.062;3.754;2024-02-21T04:14:15;9.70;99.90
32698;DHT22;19087;51.062;3.754;2024-02-21T04:16:44;9.60;99.90
32698;DHT22;19087;51.062;3.754;2024-02-21T04:19:09;9.50;99.90
32698;DHT22;19087;51.062;3.754;2024-02-21T04:21:36;9.50;99.90
32698;DHT22;19087;51.062;3.754;2024-02-21T04:24:02;9.40;99.90
32698;DHT22;19087;51.062;3.754;2024-02-21T04:26:30;9.40;99.90
32698;DHT22;19087;51.062;3.754;2024-02-21T04:28:56;9.50;99.90
32698;DHT22;19087;51.062;3.754;2024-02-21T04:31:23;9.50;99.90
32698;DHT22;19087;51.062;3.754;2024-02-21T04:33:48;9.40;99.90
32698;DHT22;19087;51.062;3.754;2024-02-21T04:36:22;9.40;99.90
32698;DHT22;19087;51.062;3.754;2024-02-21T04:38:52;9.40;99.90
32698;DHT22;19087;51.062;3.754;2024-02-21T04:41:18;9.50;99.90
32698;DHT22;19087;51.062;3.754;2024-02-21T04:43:45;9.40;99.90
32698;DHT22;19087;51.062;3.754;2024-02-21T04:46:14;9.40;99.90
32698;DHT22;19087;51.062;3.754;2024-02-21T04:48:40;9.40;99.90
32698;DHT22;19087;51.062;3.754;2024-02-21T04:51:05;9.40;99.90
32698;DHT22;19087;51.062;3.754;2024-02-21T04:53:31;9.30;99.90
32698;DHT22;19087;51.062;3.754;2024-02-21T04:55:58;9.40;99.90
32698;DHT22;19087;51.062;3.754;2024-02-21T04:58:23;9.40;99.90
32698;DHT22;19087;51.062;3.754;2024-02-21T05:00:49;9.40;99.90
32698;DHT22;19087;51.062;3.754;2024-02-21T05:03:15;9.50;99.90
32698;DHT22;19087;51.062;3.754;2024-02-21T05:05:40;9.40;99.90
32698;DHT22;19087;51.062;3.754;2024-02-21T05:08:06;9.40;99.90
32698;DHT22;19087;51.062;3.754;2024-02-21T05:10:32;9.50;99.90
32698;DHT22;19087;51.062;3.754;2024-02-21T05:12:58;9.40;99.90
32698;DHT22;19087;51.062;3.754;2024-02-21T05:15:25;9.50;99.90
32698;DHT22;19087;51.062;3.754;2024-02-21T05:17:51;9.50;99.90
32698;DHT22;19087;51.062;3.754;2024-02-21T05:20:20;9.40;99.90
32698;DHT22;19087;51.062;3.754;2024-02-21T05:22:46;9.40;99.90
32698;DHT22;19087;51.062;3.754;2024-02-21T05:25:11;9.40;99.90
32698;DHT22;19087;51.062;3.754;2024-02-21T05:27:37;9.50;99.90
32698;DHT22;19087;51.062;3.754;2024-02-21T05:30:04;9.40;99.90
32698;DHT22;19087;51.062;3.754;2024-02-21T05:32:32;9.50;99.90
32698;DHT22;19087;51.062;3.754;2024-02-21T05:34:59;9.50;99.90
32698;DHT22;19087;51.062;3.754;2024-02-21T05:37:28;9.50;99.90
32698;DHT22;19087;51.062;3.754;2024-02-21T05:39:55;9.50;99.90
32698;DHT22;19087;51.062;3.754;2024-02-21T05:42:22;9.40;99.90
32698;DHT22;19087;51.062;3.754;2024-02-21T05:44:47;9.40;99.90
32698;DHT22;19087;51.062;3.754;2024-02-21T05:47:13;9.30;99.90
32698;DHT22;19087;51.062;3.754;2024-02-21T05:49:40;9.40;99.90
32698;DHT22;19087;51.062;3.754;2024-02-21T05:52:07;9.40;99.90
32698;DHT22;19087;51.062;3.754;2024-02-21T05:54:32;9.40;99.90
32698;DHT22;19087;51.062;3.754;2024-02-21T05:56:58;9.30;99.90
32698;DHT22;19087;51.062;3.754;2024-02-21T05:59:25;9.30;99.90
32698;DHT22;19087;51.062;3.754;2024-02-21T06:01:58;9.30;99.90
32698;DHT22;19087;51.062;3.754;2024-02-21T06:04:24;9.30;99.90
32698;DHT22;19087;51.062;3.754;2024-02-21T06:06:50;9.40;99.90
32698;DHT22;19087;51.062;3.754;2024-02-21T06:09:18;9.40;99.90
32698;DHT22;19087;51.062;3.754;2024-02-21T06:11:44;9.40;99.90
32698;DHT22;19087;51.062;3.754;2024-02-21T06:14:11;9.50;99.90
32698;DHT22;19087;51.062;3.754;2024-02-21T06:16:37;9.40;99.90
32698;DHT22;19087;51.062;3.754;2024-02-21T06:19:03;9.40;99.90
32698;DHT22;19087;51.062;3.754;2024-02-21T06:21:31;9.40;99.90
32698;DHT22;19087;51.062;3.754;2024-02-21T06:23:57;9.40;99.90
32698;DHT22;19087;51.062;3.754;2024-02-21T06:26:30;9.50;99.90
32698;DHT22;19087;51.062;3.754;2024-02-21T06:28:58;9.60;99.90
32698;DHT22;19087;51.062;3.754;2024-02-21T06:31:25;9.50;99.90
32698;DHT22;19087;51.062;3.754;2024-02-21T06:33:51;9.50;99.90
32698;DHT22;19087;51.062;3.754;2024-02-21T06:36:16;9.50;99.90
32698;DHT22;19087;51.062;3.754;2024-02-21T06:38:43;9.50;99.90
32698;DHT22;19087;51.062;3.754;2024-02-21T06:41:16;9.60;99.90
32698;DHT22;19087;51.062;3.754;2024-02-21T06:43:44;9.70;99.90
32698;DHT22;19087;51.062;3.754;2024-02-21T06:46:10;9.70;99.90
32698;DHT22;19087;51.062;3.754;2024-02-21T06:48:36;9.80;99.90
32698;DHT22;19087;51.062;3.754;2024-02-21T06:51:02;9.70;99.90
32698;DHT22;19087;51.062;3.754;2024-02-21T06:53:29;9.60;99.90
32698;DHT22;19087;51.062;3.754;2024-02-21T06:55:54;9.60;99.90
32698;DHT22;19087;51.062;3.754;2024-02-21T06:58:20;9.60;99.90
32698;DHT22;19087;51.062;3.754;2024-02-21T07:00:46;9.60;99.90
32698;DHT22;19087;51.062;3.754;2024-02-21T07:03:12;9.70;99.90
32698;DHT22;19087;51.062;3.754;2024-02-21T07:05:38;9.80;99.90
32698;DHT22;19087;51.062;3.754;2024-02-21T07:08:05;9.70;99.90
32698;DHT22;19087;51.062;3.754;2024-02-21T07:10:31;9.60;99.90
32698;DHT22;19087;51.062;3.754;2024-02-21T07:12:57;9.60;99.90
32698;DHT22;19087;51.062;3.754;2024-02-21T07:15:22;9.60;99.90
32698;DHT22;19087;51.062;3.754;2024-02-21T07:17:52;9.50;99.90
32698;DHT22;19087;51.062;3.754;2024-02-21T07:20:18;9.50;99.90
32698;DHT22;19087;51.062;3.754;2024-02-21T07:22:44;9.40;99.90
32698;DHT22;19087;51.062;3.754;2024-02-21T07:25:10;9.50;99.90
32698;DHT22;19087;51.062;3.754;2024-02-21T07:27:35;9.50;99.90
32698;DHT22;19087;51.062;3.754;2024-02-21T07:30:03;9.50;99.90
32698;DHT22;19087;51.062;3.754;2024-02-21T07:32:28;9.50;99.90
32698;DHT22;19087;51.062;3.754;2024-02-21T07:34:55;9.50;99.90
32698;DHT22;19087;51.062;3.754;2024-02-21T07:37:21;9.50;99.90
32698;DHT22;19087;51.062;3.754;2024-02-21T07:39:46;9.50;99.90
32698;DHT22;19087;51.062;3.754;2024-02-21T07:42:12;9.50;99.90
32698;DHT22;19087;51.062;3.754;2024-02-21T07:44:38;9.40;99.90
32698;DHT22;19087;51.062;3.754;2024-02-21T07:47:04;9.40;99.90
32698;DHT22;19087;51.062;3.754;2024-02-21T07:49:29;9.50;99.90
32698;DHT22;19087;51.062;3.754;2024-02-21T07:51:57;9.50;99.90
32698;DHT22;19087;51.062;3.754;2024-02-21T07:54:23;9.50;99.90
32698;DHT22;19087;51.062;3.754;2024-02-21T07:56:48;9.50;99.90
32698;DHT22;19087;51.062;3.754;2024-02-21T07:59:14;9.40;99.90
32698;DHT22;19087;51.062;3.754;2024-02-21T08:01:42;9.50;99.90
32698;DHT22;19087;51.062;3.754;2024-02-21T08:04:10;9.50;99.90
32698;DHT22;19087;51.062;3.754;2024-02-21T08:06:36;9.50;99.90
32698;DHT22;19087;51.062;3.754;2024-02-21T08:09:02;9.50;99.90
32698;DHT22;19087;51.062;3.754;2024-02-21T08:11:29;9.50;99.90
32698;DHT22;19087;51.062;3.754;2024-02-21T08:13:55;9.50;99.90
32698;DHT22;19087;51.062;3.754;2024-02-21T08:16:21;9.50;99.90
32698;DHT22;19087;51.062;3.754;2024-02-21T08:18:47;9.60;99.90
32698;DHT22;19087;51.062;3.754;2024-02-21T08:21:12;9.60;99.90
32698;DHT22;19087;51.062;3.754;2024-02-21T08:23:38;9.60;99.90
32698;DHT22;19087;51.062;3.754;2024-02-21T08:26:04;9.60;99.90
32698;DHT22;19087;51.062;3.754;2024-02-21T08:28:30;9.60;99.90
32698;DHT22;19087;51.062;3.754;2024-02-21T08:30:59;9.60;99.90
32698;DHT22;19087;51.062;3.754;2024-02-21T08:33:28;9.70;99.90
32698;DHT22;19087;51.062;3.754;2024-02-21T08:35:55;9.70;99.90
32698;DHT22;19087;51.062;3.754;2024-02-21T08:38:23;9.80;99.90
32698;DHT22;19087;51.062;3.754;2024-02-21T08:40:50;9.80;99.90
32698;DHT22;19087;51.062;3.754;2024-02-21T08:43:15;9.70;99.90
32698;DHT22;19087;51.062;3.754;2024-02-21T08:45:41;9.70;99.90
32698;DHT22;19087;51.062;3.754;2024-02-21T08:48:07;9.70;99.90
32698;DHT22;19087;51.062;3.754;2024-02-21T08:50:34;9.80;99.90
32698;DHT22;19087;51.062;3.754;2024-02-21T08:53:02;9.80;99.90
32698;DHT22;19087;51.062;3.754;2024-02-21T08:55:28;9.70;99.90
32698;DHT22;19087;51.062;3.754;2024-02-21T08:57:55;9.80;99.90
32698;DHT22;19087;51.062;3.754;2024-02-21T09:00:25;9.80;99.90
32698;DHT22;19087;51.062;3.754;2024-02-21T09:02:52;9.80;99.90
32698;DHT22;19087;51.062;3.754;2024-02-21T09:05:21;9.80;99.90
32698;DHT22;19087;51.062;3.754;2024-02-21T09:07:47;9.80;99.90
32698;DHT22;19087;51.062;3.754;2024-02-21T09:10:13;9.80;99.90
32698;DHT22;19087;51.062;3.754;2024-02-21T09:12:39;9.80;99.90
32698;DHT22;19087;51.062;3.754;2024-02-21T09:15:09;9.80;99.90
32698;DHT22;19087;51.062;3.754;2024-02-21T09:17:36;9.90;99.90
32698;DHT22;19087;51.062;3.754;2024-02-21T09:20:02;10.00;99.90
32698;DHT22;19087;51.062;3.754;2024-02-21T09:22:29;10.10;99.90
32698;DHT22;19087;51.062;3.754;2024-02-21T09:24:55;10.20;99.90
32698;DHT22;19087;51.062;3.754;2024-02-21T09:27:20;10.20;99.90
32698;DHT22;19087;51.062;3.754;2024-02-21T09:29:48;10.20;99.90
32698;DHT22;19087;51.062;3.754;2024-02-21T09:32:17;10.30;99.90
32698;DHT22;19087;51.062;3.754;2024-02-21T09:34:45;10.30;99.90
32698;DHT22;19087;51.062;3.754;2024-02-21T09:37:11;10.20;99.90
32698;DHT22;19087;51.062;3.754;2024-02-21T09:39:36;10.30;99.90
32698;DHT22;19087;51.062;3.754;2024-02-21T09:42:06;10.40;99.90
32698;DHT22;19087;51.062;3.754;2024-02-21T09:44:40;10.40;99.90
32698;DHT22;19087;51.062;3.754;2024-02-21T09:47:34;10.30;99.90
32698;DHT22;19087;51.062;3.754;2024-02-21T09:50:05;10.40;99.90
32698;DHT22;19087;51.062;3.754;2024-02-21T09:52:32;10.30;99.90
32698;DHT22;19087;51.062;3.754;2024-02-21T09:54:59;10.30;99.90
32698;DHT22;19087;51.062;3.754;2024-02-21T09:57:29;10.50;99.90
32698;DHT22;19087;51.062;3.754;2024-02-21T09:59:56;10.60;99.90
32698;DHT22;19087;51.062;3.754;2024-02-21T10:02:22;10.60;99.90
32698;DHT22;19087;51.062;3.754;2024-02-21T10:04:48;10.60;99.90
32698;DHT22;19087;51.062;3.754;2024-02-21T10:07:13;10.60;99.90
32698;DHT22;19087;51.062;3.754;2024-02-21T10:09:39;10.60;99.90
32698;DHT22;19087;51.062;3.754;2024-02-21T10:12:11;10.50;99.90
32698;DHT22;19087;51.062;3.754;2024-02-21T10:14:37;10.50;99.90
32698;DHT22;19087;51.062;3.754;2024-02-21T10:17:03;10.60;99.90
32698;DHT22;19087;51.062;3.754;2024-02-21T10:19:30;10.60;99.90
32698;DHT22;19087;51.062;3.754;2024-02-21T10:22:09;10.60;99.90
32698;DHT22;19087;51.062;3.754;2024-02-21T10:24:36;10.60;99.90
32698;DHT22;19087;51.062;3.754;2024-02-21T10:27:09;10.70;99.90
32698;DHT22;19087;51.062;3.754;2024-02-21T10:29:38;10.80;99.90
32698;DHT22;19087;51.062;3.754;2024-02-21T10:32:13;10.80;99.90
32698;DHT22;19087;51.062;3.754;2024-02-21T10:34:40;10.80;99.90
32698;DHT22;19087;51.062;3.754;2024-02-21T10:37:07;10.70;99.90
32698;DHT22;19087;51.062;3.754;2024-02-21T10:39:42;10.70;99.90
32698;DHT22;19087;51.062;3.754;2024-02-21T10:42:15;10.60;99.90
32698;DHT22;19087;51.062;3.754;2024-02-21T10:44:45;10.70;99.90
32698;DHT22;19087;51.062;3.754;2024-02-21T10:47:13;10.60;99.90
32698;DHT22;19087;51.062;3.754;2024-02-21T10:49:44;10.70;99.90
32698;DHT22;19087;51.062;3.754;2024-02-21T10:55:03;10.80;99.90
32698;DHT22;19087;51.062;3.754;2024-02-21T10:57:32;10.70;99.90
32698;DHT22;19087;51.062;3.754;2024-02-21T11:00:01;10.60;99.90
32698;DHT22;19087;51.062;3.754;2024-02-21T11:02:29;10.60;99.90
32698;DHT22;19087;51.062;3.754;2024-02-21T11:04:58;10.60;99.90
32698;DHT22;19087;51.062;3.754;2024-02-21T11:07:24;10.60;99.90
32698;DHT22;19087;51.062;3.754;2024-02-21T11:09:54;10.70;99.90
32698;DHT22;19087;51.062;3.754;2024-02-21T11:12:22;10.70;99.90
32698;DHT22;19087;51.062;3.754;2024-02-21T11:14:49;10.50;99.90
32698;DHT22;19087;51.062;3.754;2024-02-21T11:17:19;10.50;99.90
32698;DHT22;19087;51.062;3.754;2024-02-21T11:19:47;10.50;99.90
32698;DHT22;19087;51.062;3.754;2024-02-21T11:22:17;10.60;99.90
32698;DHT22;19087;51.062;3.754;2024-02-21T11:24:43;10.50;99.90
32698;DHT22;19087;51.062;3.754;2024-02-21T11:27:14;10.50;99.90
32698;DHT22;19087;51.062;3.754;2024-02-21T11:29:44;10.50;99.90
32698;DHT22;19087;51.062;3.754;2024-02-21T11:32:15;10.50;99.90
32698;DHT22;19087;51.062;3.754;2024-02-21T11:35:05;10.50;99.90
32698;DHT22;19087;51.062;3.754;2024-02-21T11:37:32;10.60;99.90
32698;DHT22;19087;51.062;3.754;2024-02-21T11:39:59;10.70;99.90
32698;DHT22;19087;51.062;3.754;2024-02-21T11:42:26;10.80;99.90
32698;DHT22;19087;51.062;3.754;2024-02-21T11:44:53;10.80;99.90
32698;DHT22;19087;51.062;3.754;2024-02-21T11:47:24;10.80;99.90
32698;DHT22;19087;51.062;3.754;2024-02-21T11:49:50;10.90;99.90
32698;DHT22;19087;51.062;3.754;2024-02-21T11:52:21;10.90;99.90
32698;DHT22;19087;51.062;3.754;2024-02-21T11:54:51;10.80;99.90
32698;DHT22;19087;51.062;3.754;2024-02-21T11:57:18;10.70;99.90
32698;DHT22;19087;51.062;3.754;2024-02-21T11:59:47;10.90;99.90
32698;DHT22;19087;51.062;3.754;2024-02-21T12:02:16;11.00;99.90
32698;DHT22;19087;51.062;3.754;2024-02-21T12:04:44;11.00;99.90
32698;DHT22;19087;51.062;3.754;2024-02-21T12:07:17;10.90;99.90
32698;DHT22;19087;51.062;3.754;2024-02-21T12:09:43;10.80;99.90
32698;DHT22;19087;51.062;3.754;2024-02-21T12:12:11;10.90;99.90
32698;DHT22;19087;51.062;3.754;2024-02-21T12:14:37;10.70;99.90
32698;DHT22;19087;51.062;3.754;2024-02-21T12:17:04;10.70;99.90
32698;DHT22;19087;51.062;3.754;2024-02-21T12:19:36;10.70;99.90
32698;DHT22;19087;51.062;3.754;2024-02-21T12:22:06;10.70;99.90
32698;DHT22;19087;51.062;3.754;2024-02-21T12:24:34;10.90;99.90
32698;DHT22;19087;51.062;3.754;2024-02-21T12:27:04;10.90;99.90
32698;DHT22;19087;51.062;3.754;2024-02-21T12:29:33;10.90;99.90
32698;DHT22;19087;51.062;3.754;2024-02-21T12:31:58;10.90;99.90
32698;DHT22;19087;51.062;3.754;2024-02-21T12:34:30;10.90;99.90
32698;DHT22;19087;51.062;3.754;2024-02-21T12:36:59;10.90;99.90
32698;DHT22;19087;51.062;3.754;2024-02-21T12:39:24;10.90;99.90
32698;DHT22;19087;51.062;3.754;2024-02-21T12:41:53;11.10;99.90
32698;DHT22;19087;51.062;3.754;2024-02-21T12:44:19;11.20;99.90
32698;DHT22;19087;51.062;3.754;2024-02-21T12:46:46;11.00;99.90
32698;DHT22;19087;51.062;3.754;2024-02-21T12:49:11;11.00;99.90
32698;DHT22;19087;51.062;3.754;2024-02-21T12:51:37;11.10;99.90
32698;DHT22;19087;51.062;3.754;2024-02-21T12:54:04;11.10;99.90
32698;DHT22;19087;51.062;3.754;2024-02-21T12:56:33;11.10;99.90
32698;DHT22;19087;51.062;3.754;2024-02-21T12:58:59;11.20;99.90
32698;DHT22;19087;51.062;3.754;2024-02-21T13:01:26;11.10;99.90
32698;DHT22;19087;51.062;3.754;2024-02-21T13:03:54;11.00;99.90
32698;DHT22;19087;51.062;3.754;2024-02-21T13:06:21;11.00;99.90
32698;DHT22;19087;51.062;3.754;2024-02-21T13:08:47;10.90;99.90
32698;DHT22;19087;51.062;3.754;2024-02-21T13:11:14;11.00;99.90
32698;DHT22;19087;51.062;3.754;2024-02-21T13:13:40;11.00;99.90
32698;DHT22;19087;51.062;3.754;2024-02-21T13:16:06;11.00;99.90
32698;DHT22;19087;51.062;3.754;2024-02-21T13:18:32;11.20;99.90
32698;DHT22;19087;51.062;3.754;2024-02-21T13:20:58;11.20;99.90
32698;DHT22;19087;51.062;3.754;2024-02-21T13:23:23;11.00;99.90
32698;DHT22;19087;51.062;3.754;2024-02-21T13:25:50;11.00;99.90
32698;DHT22;19087;51.062;3.754;2024-02-21T13:28:17;10.80;99.90
32698;DHT22;19087;51.062;3.754;2024-02-21T13:30:43;10.80;99.90
32698;DHT22;19087;51.062;3.754;2024-02-21T13:33:11;10.70;99.90
32698;DHT22;19087;51.062;3.754;2024-02-21T13:35:37;10.60;99.90
32698;DHT22;19087;51.062;3.754;2024-02-21T13:38:04;10.50;99.90
32698;DHT22;19087;51.062;3.754;2024-02-21T13:40:30;10.60;99.90
32698;DHT22;19087;51.062;3.754;2024-02-21T13:42:55;10.50;99.90
32698;DHT22;19087;51.062;3.754;2024-02-21T13:45:21;10.50;99.90
32698;DHT22;19087;51.062;3.754;2024-02-21T13:47:47;10.50;99.90
32698;DHT22;19087;51.062;3.754;2024-02-21T13:50:14;10.50;99.90
32698;DHT22;19087;51.062;3.754;2024-02-21T13:52:40;10.50;99.90
32698;DHT22;19087;51.062;3.754;2024-02-21T13:55:07;10.50;99.90
32698;DHT22;19087;51.062;3.754;2024-02-21T13:57:38;10.50;99.90
32698;DHT22;19087;51.062;3.754;2024-02-21T14:00:06;10.40;99.90
32698;DHT22;19087;51.062;3.754;2024-02-21T14:02:37;10.40;99.90
32698;DHT22;19087;51.062;3.754;2024-02-21T14:05:04;10.50;99.90
32698;DHT22;19087;51.062;3.754;2024-02-21T14:07:31;10.50;99.90
32698;DHT22;19087;51.062;3.754;2024-02-21T14:10:00;10.40;99.90
32698;DHT22;19087;51.062;3.754;2024-02-21T14:12:29;10.40;99.90
32698;DHT22;19087;51.062;3.754;2024-02-21T14:14:54;10.40;99.90
32698;DHT22;19087;51.062;3.754;2024-02-21T14:17:24;10.40;99.90
32698;DHT22;19087;51.062;3.754;2024-02-21T14:19:52;10.40;99.90
32698;DHT22;19087;51.062;3.754;2024-02-21T14:22:19;10.30;99.90
32698;DHT22;19087;51.062;3.754;2024-02-21T14:24:45;10.30;99.90
32698;DHT22;19087;51.062;3.754;2024-02-21T14:27:11;10.30;99.90
32698;DHT22;19087;51.062;3.754;2024-02-21T14:29:39;10.20;99.90
32698;DHT22;19087;51.062;3.754;2024-02-21T14:32:04;10.30;99.90
32698;DHT22;19087;51.062;3.754;2024-02-21T14:34:32;10.20;99.90
32698;DHT22;19087;51.062;3.754;2024-02-21T14:36:58;10.20;99.90
32698;DHT22;19087;51.062;3.754;2024-02-21T14:39:23;10.20;99.90
32698;DHT22;19087;51.062;3.754;2024-02-21T14:41:49;10.30;99.90
32698;DHT22;19087;51.062;3.754;2024-02-21T14:44:16;10.20;99.90
32698;DHT22;19087;51.062;3.754;2024-02-21T14:46:42;10.20;99.90
32698;DHT22;19087;51.062;3.754;2024-02-21T14:49:14;10.30;99.90
32698;DHT22;19087;51.062;3.754;2024-02-21T14:51:40;10.20;99.90
32698;DHT22;19087;51.062;3.754;2024-02-21T14:54:07;10.20;99.90
32698;DHT22;19087;51.062;3.754;2024-02-21T14:56:32;10.20;99.90
32698;DHT22;19087;51.062;3.754;2024-02-21T14:59:09;10.20;99.90
32698;DHT22;19087;51.062;3.754;2024-02-21T15:01:38;10.10;99.90
32698;DHT22;19087;51.062;3.754;2024-02-21T15:04:04;10.00;99.90
32698;DHT22;19087;51.062;3.754;2024-02-21T15:06:33;10.00;99.90
32698;DHT22;19087;51.062;3.754;2024-02-21T15:09:01;10.00;99.90
32698;DHT22;19087;51.062;3.754;2024-02-21T15:11:28;10.00;99.90
32698;DHT22;19087;51.062;3.754;2024-02-21T15:13:55;9.90;99.90
32698;DHT22;19087;51.062;3.754;2024-02-21T15:16:23;9.90;99.90
32698;DHT22;19087;51.062;3.754;2024-02-21T15:18:51;9.90;99.90
32698;DHT22;19087;51.062;3.754;2024-02-21T15:21:27;9.90;99.90
32698;DHT22;19087;51.062;3.754;2024-02-21T15:23:59;9.90;99.90
32698;DHT22;19087;51.062;3.754;2024-02-21T15:26:30;9.90;99.90
32698;DHT22;19087;51.062;3.754;2024-02-21T15:29:01;9.90;99.90
32698;DHT22;19087;51.062;3.754;2024-02-21T15:31:27;9.90;99.90
32698;DHT22;19087;51.062;3.754;2024-02-21T15:33:55;9.90;99.90
32698;DHT22;19087;51.062;3.754;2024-02-21T15:36:21;9.90;99.90
32698;DHT22;19087;51.062;3.754;2024-02-21T15:38:48;9.90;99.90
32698;DHT22;19087;51.062;3.754;2024-02-21T15:41:21;9.90;99.90
32698;DHT22;19087;51.062;3.754;2024-02-21T15:43:51;9.90;99.90